Terminal Aerodrome Forecast
Issued by NWS Wilmington, NC

Home | Current Version | Previous Version | Text Only | Print | Product List | Glossary On
Versions: 1 2 3 4 5 6 7 8 9 10 11 12 13 14 15 16 17 18 19 20 21 22 23 24 25
000
FTUS42 KILM 170001 CCC
TAFMYR
TAF COR
KMYR 170001Z 1700/1724 17009KT 5SM -TSRA BKN025CB OVC045
     FM170100 20006KT P6SM BKN100 OVC250
     FM170800 19003KT P6SM SCT250
      TEMPO 1709/1712 00000KT 4SM BR
     FM171300 15005KT P6SM SCT250
     FM171700 18010KT P6SM VCTS SCT020CB BKN040
      AMD LTD TO CLD VIS AND WIND 1703/1710=

USA.gov is the U.S. government's official web portal to all federal, state and local government web resources and services.